createdAt,value
2022-08-23T00:02:29.435Z,87.29
2022-08-23T00:05:09.333Z,86.98
2022-08-23T00:07:39.367Z,87.09
2022-08-23T00:10:10.213Z,87.04
2022-08-23T00:12:39.040Z,86.96
2022-08-23T00:15:09.679Z,86.87
2022-08-23T00:17:39.173Z,86.83
2022-08-23T00:20:09.225Z,86.72
2022-08-23T00:22:39.938Z,87.15
2022-08-23T00:25:10.651Z,87.45
2022-08-23T00:27:39.433Z,87.01
2022-08-23T00:30:10.723Z,87.16
2022-08-23T00:32:41.748Z,87.07
2022-08-23T00:35:12.382Z,86.86
2022-08-23T00:38:32.702Z,86.52
2022-08-23T00:40:44.025Z,86.55
2022-08-23T00:43:34.969Z,86.42
2022-08-23T00:46:30.929Z,86.11
2022-08-23T00:49:02.580Z,86.24
2022-08-23T00:51:46.836Z,86.23
2022-08-23T00:54:21.879Z,86.33
2022-08-23T00:56:50.668Z,86.34
2022-08-23T00:59:19.432Z,86.12
2022-08-23T01:01:47.955Z,85.91
2022-08-23T01:04:17.756Z,86.01
2022-08-23T01:06:51.962Z,86.06
2022-08-23T01:09:22.416Z,85.88
2022-08-23T01:11:55.974Z,85.99
2022-08-23T01:14:31.146Z,85.65
2022-08-23T01:17:05.565Z,85.60
2022-08-23T01:19:38.617Z,85.82
2022-08-23T01:22:13.481Z,86.06
2022-08-23T01:25:06.000Z,85.96
2022-08-23T01:27:34.380Z,86.05
2022-08-23T01:30:04.453Z,85.78
2022-08-23T01:32:33.025Z,86.11
2022-08-23T01:35:01.050Z,86.31
2022-08-23T01:37:29.358Z,86.75
2022-08-23T01:39:58.962Z,87.24
2022-08-23T01:42:27.508Z,87.43
2022-08-23T01:44:55.384Z,87.83
2022-08-23T01:47:23.414Z,88.36
2022-08-23T01:49:51.840Z,88.18
2022-08-23T01:52:19.735Z,88.75
2022-08-23T01:54:47.620Z,89.05
2022-08-23T01:57:17.527Z,88.99
2022-08-23T01:59:45.611Z,89.01
2022-08-23T02:02:13.777Z,89.41
2022-08-23T02:04:41.805Z,89.37
2022-08-23T02:07:09.780Z,89.46
2022-08-23T02:09:38.409Z,89.59
2022-08-23T02:12:07.055Z,89.95
2022-08-23T02:14:42.012Z,89.97
2022-08-23T02:17:18.505Z,90.09
2022-08-23T02:19:46.805Z,90.27
2022-08-23T02:22:14.950Z,90.19
2022-08-23T02:24:44.687Z,90.05
2022-08-23T02:27:15.348Z,90.28
2022-08-23T02:29:47.024Z,90.52
2022-08-23T02:32:18.166Z,90.55
2022-08-23T02:34:51.045Z,90.76
2022-08-23T02:37:35.829Z,90.82
2022-08-23T02:40:06.211Z,91.39
2022-08-23T02:42:34.334Z,91.57
2022-08-23T02:45:05.398Z,91.60
2022-08-23T02:47:36.829Z,91.68
2022-08-23T02:50:15.717Z,91.67
2022-08-23T02:52:44.997Z,91.81
2022-08-23T02:55:13.233Z,91.79
2022-08-23T02:57:41.229Z,91.32
2022-08-23T03:00:15.523Z,91.49
2022-08-23T03:02:43.716Z,91.33
2022-08-23T03:05:13.320Z,91.06
2022-08-23T03:07:41.765Z,91.01
2022-08-23T03:10:11.980Z,91.08
2022-08-23T03:12:45.660Z,91.19
2022-08-23T03:15:16.212Z,90.91
2022-08-23T03:17:44.608Z,91.04
2022-08-23T03:20:13.575Z,91.29
2022-08-23T03:22:41.681Z,91.60
2022-08-23T03:25:19.235Z,91.82
2022-08-23T03:28:07.349Z,92.01
2022-08-23T03:30:40.133Z,91.58
2022-08-23T03:33:09.145Z,91.59
2022-08-23T03:35:37.332Z,90.83
2022-08-23T03:38:06.129Z,90.09
2022-08-23T03:40:36.157Z,90.08
2022-08-23T03:43:05.281Z,90.30
2022-08-23T03:45:34.231Z,90.34
2022-08-23T03:48:04.159Z,91.23
2022-08-23T03:50:35.329Z,91.13
2022-08-23T03:53:03.526Z,90.62
2022-08-23T03:55:31.684Z,90.29
2022-08-23T03:58:01.173Z,90.20
2022-08-23T04:00:29.494Z,89.78
2022-08-23T04:02:57.657Z,90.06
2022-08-23T04:05:28.883Z,90.23
2022-08-23T04:08:09.260Z,90.39
2022-08-23T04:10:39.330Z,90.92
2022-08-23T04:13:09.059Z,90.96
2022-08-23T04:15:37.651Z,90.90
2022-08-23T04:18:06.554Z,90.54
2022-08-23T04:20:39.165Z,90.22
2022-08-23T04:23:07.249Z,89.73
2022-08-23T04:25:45.913Z,89.40
2022-08-23T04:28:14.574Z,89.61
2022-08-23T04:30:43.347Z,89.31
2022-08-23T04:33:18.030Z,88.75
2022-08-23T04:35:48.745Z,88.23
2022-08-23T04:38:24.655Z,88.08
2022-08-23T04:41:13.120Z,88.45
2022-08-23T04:43:42.488Z,89.07
2022-08-23T04:46:15.363Z,88.79
2022-08-23T04:48:45.836Z,88.51
2022-08-23T04:51:15.729Z,88.61
2022-08-23T04:53:44.697Z,88.22
2022-08-23T04:56:31.189Z,88.10
2022-08-23T04:58:59.216Z,88.18
2022-08-23T05:01:29.364Z,87.65
2022-08-23T05:03:58.137Z,86.99
2022-08-23T05:06:29.648Z,86.94
2022-08-23T05:08:58.021Z,87.13
2022-08-23T05:11:29.141Z,87.05
2022-08-23T05:13:57.674Z,87.07
2022-08-23T05:16:25.857Z,86.83
2022-08-23T05:18:59.508Z,87.00
2022-08-23T05:21:29.133Z,86.78
2022-08-23T05:23:56.980Z,86.73
2022-08-23T05:26:27.037Z,86.61
2022-08-23T05:28:54.940Z,86.57
2022-08-23T05:31:30.481Z,86.86
2022-08-23T05:34:00.993Z,87.06
2022-08-23T05:36:38.257Z,86.75
2022-08-23T05:39:17.233Z,86.94
2022-08-23T05:42:03.933Z,86.95
2022-08-23T05:44:36.238Z,87.35
2022-08-23T05:47:10.389Z,87.00
2022-08-23T05:49:45.027Z,86.79
2022-08-23T05:52:14.968Z,87.30
2022-08-23T05:54:45.020Z,87.06
2022-08-23T05:57:31.266Z,87.47
2022-08-23T05:59:59.891Z,87.23
2022-08-23T06:02:27.999Z,87.40
2022-08-23T06:04:57.599Z,87.46
2022-08-23T06:07:27.087Z,87.30
2022-08-23T06:09:55.977Z,87.23
2022-08-23T06:12:24.031Z,87.37
2022-08-23T06:14:52.692Z,87.09
2022-08-23T06:17:20.934Z,86.76
2022-08-23T06:19:48.935Z,86.87
2022-08-23T06:22:37.724Z,86.33
2022-08-23T06:25:09.710Z,86.10
2022-08-23T06:27:53.548Z,85.98
2022-08-23T06:30:21.466Z,86.17
2022-08-23T06:33:09.637Z,86.29
2022-08-23T06:35:47.847Z,85.74
2022-08-23T06:38:22.959Z,85.67
2022-08-23T06:41:02.039Z,85.76
2022-08-23T06:43:41.061Z,85.50
2022-08-23T06:46:23.563Z,85.13
2022-08-23T06:48:53.138Z,85.08
2022-08-23T06:51:26.606Z,84.76
2022-08-23T06:54:07.277Z,84.42
2022-08-23T06:56:46.405Z,83.83
2022-08-23T06:59:18.981Z,83.15
2022-08-23T07:02:15.501Z,82.87
2022-08-23T07:04:58.797Z,82.71
2022-08-23T07:07:54.409Z,82.02
2022-08-23T07:10:23.841Z,81.59
2022-08-23T07:12:52.394Z,81.54
2022-08-23T07:15:22.024Z,81.19
2022-08-23T07:17:50.180Z,80.71
2022-08-23T07:20:19.230Z,80.91
2022-08-23T07:22:47.231Z,80.74
2022-08-23T07:25:15.604Z,80.36
2022-08-23T07:27:49.920Z,80.20
2022-08-23T07:30:21.104Z,80.07
2022-08-23T07:32:50.211Z,79.75
2022-08-23T07:35:27.081Z,79.53
2022-08-23T07:37:57.253Z,79.28
2022-08-23T07:40:30.055Z,79.19
2022-08-23T07:43:04.213Z,78.78
2022-08-23T07:45:32.711Z,78.55
2022-08-23T07:48:03.215Z,78.11
2022-08-23T07:50:37.367Z,78.32
2022-08-23T07:53:37.337Z,78.45
2022-08-23T07:56:07.723Z,78.92
2022-08-23T07:58:56.011Z,79.05
2022-08-23T08:01:53.392Z,78.92
2022-08-23T08:04:23.079Z,79.11
2022-08-23T08:07:10.376Z,79.27
2022-08-23T08:09:44.893Z,79.14
2022-08-23T08:12:13.001Z,78.98
2022-08-23T08:14:44.974Z,79.10
2022-08-23T08:17:16.946Z,79.26
2022-08-23T08:20:23.165Z,79.08
2022-08-23T08:23:09.316Z,78.94
2022-08-23T08:26:02.385Z,78.78
2022-08-23T08:28:31.534Z,78.93
2022-08-23T08:31:01.215Z,78.98
2022-08-23T08:33:31.344Z,78.80
2022-08-23T08:36:03.579Z,78.79
2022-08-23T08:38:36.781Z,78.55
2022-08-23T08:41:17.428Z,77.89
2022-08-23T08:43:59.185Z,77.10
2022-08-23T08:46:41.962Z,76.72
2022-08-23T08:49:19.422Z,76.89
2022-08-23T08:51:52.574Z,76.41
2022-08-23T08:54:25.860Z,76.09
2022-08-23T08:56:58.394Z,75.88
2022-08-23T08:59:37.902Z,75.68
2022-08-23T09:02:22.061Z,75.11
2022-08-23T09:04:59.263Z,75.70
2022-08-23T09:07:38.590Z,75.70
2022-08-23T09:10:27.056Z,76.12
2022-08-23T09:13:31.871Z,75.26
2022-08-23T09:16:16.082Z,76.17
2022-08-23T09:18:46.868Z,76.11
2022-08-23T09:21:16.656Z,75.75
2022-08-23T09:23:46.898Z,75.81
2022-08-23T09:26:25.257Z,75.29
2022-08-23T09:28:56.775Z,75.44
2022-08-23T09:31:38.758Z,75.31
2022-08-23T09:34:09.516Z,74.96
2022-08-23T09:36:46.754Z,74.77
2022-08-23T09:39:30.861Z,75.25
2022-08-23T09:42:05.160Z,75.14
2022-08-23T09:44:37.814Z,74.91
2022-08-23T09:47:11.144Z,74.58
2022-08-23T09:49:45.728Z,73.96
2022-08-23T09:52:26.127Z,74.06
2022-08-23T09:55:05.485Z,73.80
2022-08-23T09:57:39.536Z,73.29
2022-08-23T10:00:24.714Z,73.52
2022-08-23T10:02:57.627Z,73.76
2022-08-23T10:05:38.668Z,73.72
2022-08-23T10:08:11.031Z,74.13
2022-08-23T10:10:51.148Z,74.26
2022-08-23T10:13:24.204Z,74.95
2022-08-23T10:16:03.049Z,75.30
2022-08-23T10:18:50.865Z,75.54
2022-08-23T10:21:31.427Z,75.63
2022-08-23T10:24:22.743Z,75.24
2022-08-23T10:27:27.169Z,75.12
2022-08-23T10:30:02.989Z,74.68
2022-08-23T10:32:44.957Z,74.26
2022-08-23T10:35:29.279Z,73.61
2022-08-23T10:38:12.870Z,74.02
2022-08-23T10:40:57.333Z,73.16
2022-08-23T10:43:33.962Z,72.34
2022-08-23T10:46:04.637Z,72.42
2022-08-23T10:48:38.621Z,72.48
2022-08-23T10:51:11.873Z,72.40
2022-08-23T10:53:46.757Z,72.44
2022-08-23T10:56:19.199Z,71.87
2022-08-23T10:58:57.354Z,71.66
2022-08-23T11:01:32.010Z,71.15
2022-08-23T11:04:04.580Z,71.09
2022-08-23T11:07:00.250Z,70.88
2022-08-23T11:09:51.679Z,71.29
2022-08-23T11:12:26.936Z,70.69
2022-08-23T11:15:10.639Z,71.39
2022-08-23T11:17:55.123Z,71.06
2022-08-23T11:21:02.733Z,71.51
2022-08-23T11:23:51.972Z,71.88
2022-08-23T11:27:06.750Z,71.48
2022-08-23T11:29:43.810Z,70.92
2022-08-23T11:32:45.388Z,71.40
2022-08-23T11:35:43.064Z,71.50
2022-08-23T11:38:14.115Z,71.53
2022-08-23T11:41:13.272Z,71.35
2022-08-23T11:43:44.428Z,71.94
2022-08-23T11:46:32.277Z,72.15
2022-08-23T11:49:31.909Z,71.78
2022-08-23T11:52:12.880Z,71.35
2022-08-23T11:54:57.374Z,70.53
2022-08-23T11:57:37.997Z,70.62
2022-08-23T12:00:17.768Z,69.81
2022-08-23T12:03:05.590Z,68.95
2022-08-23T12:06:10.632Z,68.23
2022-08-23T12:09:01.685Z,67.44
2022-08-23T12:12:03.289Z,66.80
2022-08-23T12:14:37.440Z,66.15
2022-08-23T12:17:43.736Z,65.98
2022-08-23T12:20:28.184Z,65.50
2022-08-23T12:23:07.732Z,65.28
2022-08-23T12:25:37.339Z,65.24
2022-08-23T12:28:19.556Z,65.12
2022-08-23T12:30:56.828Z,65.72
2022-08-23T12:33:35.046Z,65.81
2022-08-23T12:36:12.313Z,65.71
2022-08-23T12:38:56.609Z,66.07
2022-08-23T12:41:27.499Z,65.69
2022-08-23T12:43:59.974Z,65.79
2022-08-23T12:46:38.498Z,65.38
2022-08-23T12:49:08.240Z,65.75
2022-08-23T12:51:42.793Z,65.46
2022-08-23T12:54:17.653Z,65.53
2022-08-23T12:56:47.345Z,65.04
2022-08-23T12:59:33.326Z,64.89
2022-08-23T13:02:03.998Z,64.03
2022-08-23T13:04:33.678Z,63.40
2022-08-23T13:07:06.855Z,62.52
2022-08-23T13:09:39.591Z,62.51
2022-08-23T13:12:09.423Z,62.19
2022-08-23T13:14:43.684Z,62.52
2022-08-23T13:17:36.678Z,62.30
2022-08-23T13:20:28.655Z,62.09
2022-08-23T13:23:01.015Z,62.02
2022-08-23T13:25:33.300Z,62.38
2022-08-23T13:28:03.361Z,62.43
2022-08-23T13:30:33.376Z,61.87
2022-08-23T13:33:22.225Z,60.80
2022-08-23T13:35:52.487Z,60.61
2022-08-23T13:38:26.770Z,59.93
2022-08-23T13:41:01.480Z,59.94
2022-08-23T13:43:33.888Z,59.74
2022-08-23T13:46:12.393Z,59.74
2022-08-23T13:48:48.980Z,59.03
2022-08-23T13:51:31.483Z,58.36
2022-08-23T13:54:05.421Z,57.91
2022-08-23T13:56:39.641Z,57.72
2022-08-23T13:59:20.229Z,57.88
2022-08-23T14:01:48.569Z,57.76
2022-08-23T14:04:16.777Z,57.02
2022-08-23T14:06:44.709Z,55.67
2022-08-23T14:09:17.376Z,55.18
2022-08-23T14:11:49.496Z,54.75
2022-08-23T14:14:17.837Z,54.08
2022-08-23T14:16:46.011Z,54.82
2022-08-23T14:19:16.623Z,53.76
2022-08-23T14:22:02.040Z,53.12
2022-08-23T14:24:29.979Z,52.68
2022-08-23T14:26:59.340Z,52.44
2022-08-23T14:29:29.136Z,51.93
2022-08-23T14:31:59.119Z,51.81
2022-08-23T14:34:28.334Z,52.25
2022-08-23T14:39:44.576Z,51.94
2022-08-23T14:42:16.467Z,51.68
2022-08-23T14:44:44.374Z,51.29
2022-08-23T14:47:12.285Z,51.53
2022-08-23T14:49:40.256Z,52.45
2022-08-23T14:52:08.591Z,51.94
2022-08-23T14:54:36.792Z,51.96
2022-08-23T14:57:04.960Z,51.62
2022-08-23T14:59:34.288Z,51.09
2022-08-23T15:02:03.259Z,51.26
2022-08-23T15:04:34.714Z,51.38
2022-08-23T15:07:19.742Z,51.90
2022-08-23T15:09:48.679Z,52.65
2022-08-23T15:15:12.368Z,53.71
2022-08-23T15:17:47.871Z,53.86
2022-08-23T15:20:16.458Z,54.37
2022-08-23T15:22:45.193Z,54.60
2022-08-23T15:25:25.293Z,55.19
2022-08-23T15:27:54.010Z,55.67
2022-08-23T15:30:24.808Z,56.64
2022-08-23T15:32:56.597Z,56.89
2022-08-23T15:35:26.150Z,56.74
2022-08-23T15:37:55.921Z,56.28
2022-08-23T15:40:25.716Z,55.87
2022-08-23T15:42:54.201Z,55.31
2022-08-23T15:45:23.900Z,54.10
2022-08-23T15:47:53.996Z,53.96
2022-08-23T15:50:25.890Z,53.23
2022-08-23T15:52:53.916Z,53.55
2022-08-23T15:55:22.389Z,53.13
2022-08-23T15:57:52.793Z,53.98
2022-08-23T16:00:24.473Z,55.04
2022-08-23T16:03:20.549Z,55.42
2022-08-23T16:05:44.355Z,54.78
2022-08-23T16:08:18.483Z,55.18
2022-08-23T16:10:46.737Z,54.17
2022-08-23T16:13:14.628Z,54.85
2022-08-23T16:15:43.949Z,54.40
2022-08-23T16:18:12.478Z,54.85
2022-08-23T16:20:40.826Z,54.48
2022-08-23T16:23:09.016Z,54.96
2022-08-23T16:25:37.861Z,55.29
2022-08-23T16:28:07.380Z,55.44
2022-08-23T16:30:35.780Z,55.46
2022-08-23T16:33:05.237Z,56.39
2022-08-23T16:35:33.227Z,56.31
2022-08-23T16:38:01.144Z,56.39
2022-08-23T16:40:29.078Z,56.03
2022-08-23T16:42:57.487Z,56.56
2022-08-23T16:45:26.306Z,56.66
2022-08-23T16:47:54.648Z,56.98
2022-08-23T16:50:23.974Z,57.60
2022-08-23T16:52:51.946Z,57.63
2022-08-23T16:55:20.176Z,58.15
2022-08-23T16:57:48.089Z,58.26
2022-08-23T17:00:16.607Z,58.70
2022-08-23T17:02:45.031Z,59.74
2022-08-23T17:05:16.482Z,60.08
2022-08-23T17:07:45.885Z,60.91
2022-08-23T17:10:16.080Z,61.69
2022-08-23T17:12:47.029Z,62.05
2022-08-23T17:15:20.244Z,62.87
2022-08-23T17:17:48.966Z,63.69
2022-08-23T17:20:18.075Z,64.58
2022-08-23T17:22:47.737Z,64.92
2022-08-23T17:25:16.793Z,65.79
2022-08-23T17:27:46.945Z,65.95
2022-08-23T17:30:17.257Z,66.40
2022-08-23T17:32:47.571Z,67.42
2022-08-23T17:35:18.169Z,67.71
2022-08-23T17:37:48.255Z,67.88
2022-08-23T17:40:21.438Z,68.34
2022-08-23T17:42:49.964Z,68.96
2022-08-23T17:45:18.927Z,69.09
2022-08-23T17:47:47.583Z,69.45
2022-08-23T17:50:18.172Z,69.96
2022-08-23T17:52:47.637Z,69.59
2022-08-23T17:55:17.135Z,69.99
2022-08-23T17:57:46.949Z,70.05
2022-08-23T18:00:17.755Z,70.48
2022-08-23T18:02:45.661Z,70.55
2022-08-23T18:05:13.565Z,71.24
2022-08-23T18:07:41.461Z,71.12
2022-08-23T18:10:12.300Z,71.12
2022-08-23T18:12:40.569Z,71.22
2022-08-23T18:15:09.530Z,71.48
2022-08-23T18:17:38.762Z,71.62
2022-08-23T18:20:08.413Z,71.77
2022-08-23T18:22:37.427Z,72.14
2022-08-23T18:25:05.675Z,72.08
2022-08-23T18:27:52.324Z,71.95
2022-08-23T18:30:20.309Z,72.23
2022-08-23T18:32:48.180Z,72.46
2022-08-23T18:35:16.552Z,72.04
2022-08-23T18:37:44.540Z,72.13
2022-08-23T18:40:13.498Z,72.06
2022-08-23T18:42:42.769Z,72.11
2022-08-23T18:45:11.065Z,72.39
2022-08-23T18:47:38.932Z,72.63
2022-08-23T18:50:10.060Z,72.77
2022-08-23T18:52:38.492Z,72.93
2022-08-23T18:55:07.421Z,73.21
2022-08-23T18:57:35.971Z,72.50
2022-08-23T19:00:07.456Z,72.82
2022-08-23T19:02:35.606Z,73.14
2022-08-23T19:05:03.969Z,73.01
2022-08-23T19:07:32.446Z,72.85
2022-08-23T19:10:01.238Z,72.83
2022-08-23T19:12:29.398Z,73.11
2022-08-23T19:14:57.712Z,73.19
2022-08-23T19:17:27.642Z,72.96
2022-08-23T19:19:55.597Z,73.57
2022-08-23T19:22:24.425Z,73.40
2022-08-23T19:24:52.874Z,73.82
2022-08-23T19:27:20.905Z,74.17
2022-08-23T19:29:48.897Z,74.40
2022-08-23T19:32:17.385Z,74.48
2022-08-23T19:34:46.711Z,74.35
2022-08-23T19:37:20.762Z,74.66
2022-08-23T19:39:52.081Z,74.38
2022-08-23T19:42:20.795Z,74.29
2022-08-23T19:44:49.519Z,74.04
2022-08-23T19:47:20.151Z,74.06
2022-08-23T19:49:51.004Z,73.95
2022-08-23T19:52:18.932Z,74.25
2022-08-23T19:54:46.824Z,74.16
2022-08-23T19:57:14.840Z,73.95
2022-08-23T19:59:43.124Z,74.14
2022-08-23T20:02:13.020Z,74.24
2022-08-23T20:04:41.410Z,74.66
2022-08-23T20:07:10.690Z,74.57
2022-08-23T20:09:38.654Z,74.73
2022-08-23T20:12:07.543Z,74.70
2022-08-23T20:14:35.440Z,74.64
2022-08-23T20:17:06.571Z,74.82
2022-08-23T20:19:35.175Z,74.73
2022-08-23T20:22:17.569Z,74.92
2022-08-23T20:24:52.120Z,75.32
2022-08-23T20:27:25.459Z,75.39
2022-08-23T20:29:59.734Z,75.33
2022-08-23T20:32:27.784Z,75.30
2022-08-23T20:34:55.865Z,75.37
2022-08-23T20:37:24.142Z,75.33
2022-08-23T20:39:53.725Z,75.38
2022-08-23T20:42:21.708Z,75.35
2022-08-23T20:44:49.602Z,75.50
2022-08-23T20:47:17.547Z,75.14
2022-08-23T20:49:45.927Z,75.21
2022-08-23T20:52:13.804Z,75.54
2022-08-23T20:54:41.762Z,75.65
2022-08-23T20:57:11.038Z,75.66
2022-08-23T20:59:43.724Z,75.73
2022-08-23T21:02:12.703Z,75.94
2022-08-23T21:04:40.659Z,75.60
2022-08-23T21:07:09.251Z,75.75
2022-08-23T21:09:37.215Z,76.18
2022-08-23T21:12:06.021Z,76.32
2022-08-23T21:14:35.300Z,76.29
2022-08-23T21:17:03.180Z,76.15
2022-08-23T21:19:31.281Z,76.22
2022-08-23T21:21:59.385Z,76.28
2022-08-23T21:24:27.271Z,76.25
2022-08-23T21:26:55.160Z,76.25
2022-08-23T21:29:23.329Z,76.23
2022-08-23T21:31:52.681Z,75.96
2022-08-23T21:34:20.609Z,75.94
2022-08-23T21:36:51.173Z,76.25
2022-08-23T21:39:19.141Z,76.39
2022-08-23T21:41:48.151Z,76.33
2022-08-23T21:44:18.179Z,76.45
2022-08-23T21:46:46.431Z,76.34
2022-08-23T21:49:16.080Z,76.28
2022-08-23T21:51:45.479Z,76.21
2022-08-23T21:54:14.475Z,76.77
2022-08-23T21:56:42.651Z,76.81
2022-08-23T21:59:13.283Z,76.68
2022-08-23T22:01:42.116Z,76.56
2022-08-23T22:04:13.286Z,76.54
2022-08-23T22:06:46.115Z,76.74
2022-08-23T22:09:25.838Z,76.67
2022-08-23T22:12:00.322Z,76.75
2022-08-23T22:14:31.362Z,76.85
2022-08-23T22:17:00.169Z,76.67
2022-08-23T22:19:28.868Z,76.74
2022-08-23T22:21:58.060Z,76.80
2022-08-23T22:24:26.495Z,76.66
2022-08-23T22:26:55.615Z,76.88
2022-08-23T22:29:24.295Z,77.05
2022-08-23T22:31:52.316Z,77.08
2022-08-23T22:34:20.181Z,76.70
2022-08-23T22:36:51.977Z,76.64
2022-08-23T22:39:22.869Z,76.79
2022-08-23T22:41:50.875Z,76.67
2022-08-23T22:44:18.846Z,76.81
2022-08-23T22:46:47.000Z,76.75
2022-08-23T22:49:15.019Z,76.48
2022-08-23T22:51:43.760Z,76.67
2022-08-23T22:54:12.340Z,76.68
2022-08-23T22:56:44.445Z,76.54
2022-08-23T22:59:13.937Z,76.63
2022-08-23T23:01:47.737Z,76.54
2022-08-23T23:04:17.468Z,76.45
2022-08-23T23:06:45.444Z,76.10
2022-08-23T23:09:14.301Z,75.99
2022-08-23T23:11:45.545Z,75.73
2022-08-23T23:14:14.660Z,75.62
2022-08-23T23:16:43.032Z,75.87
2022-08-23T23:19:29.555Z,75.79
2022-08-23T23:21:59.278Z,75.74
2022-08-23T23:24:29.197Z,75.92
2022-08-23T23:26:58.926Z,75.93
2022-08-23T23:29:27.912Z,76.05
2022-08-23T23:31:56.123Z,75.86
2022-08-23T23:34:25.073Z,76.00
2022-08-23T23:36:55.835Z,75.80
2022-08-23T23:39:23.917Z,75.94
2022-08-23T23:41:52.010Z,75.76
2022-08-23T23:44:29.181Z,75.87
2022-08-23T23:47:00.700Z,76.03
2022-08-23T23:49:33.058Z,75.94
2022-08-23T23:52:02.893Z,76.07
2022-08-23T23:54:31.380Z,75.94
2022-08-23T23:56:59.390Z,75.98
2022-08-23T23:59:28.939Z,76.07
